createdAt,value
2018-07-11T00:01:42.320Z,99.90
2018-07-11T00:04:11.506Z,99.90
2018-07-11T00:06:40.703Z,99.90
2018-07-11T00:09:09.908Z,99.90
2018-07-11T00:11:39.181Z,99.90
2018-07-11T00:14:08.313Z,99.90
2018-07-11T00:16:37.610Z,99.90
2018-07-11T00:19:06.777Z,99.90
2018-07-11T00:21:35.967Z,99.90
2018-07-11T00:24:05.108Z,99.90
2018-07-11T00:26:34.281Z,99.90
2018-07-11T00:29:03.496Z,99.90
2018-07-11T00:31:32.664Z,99.90
2018-07-11T00:34:01.897Z,99.90
2018-07-11T00:36:31.072Z,99.90
2018-07-11T00:39:00.276Z,99.90
2018-07-11T00:41:29.454Z,99.90
2018-07-11T00:43:58.664Z,99.90
2018-07-11T00:46:27.898Z,99.90
2018-07-11T00:48:57.092Z,99.90
2018-07-11T00:51:26.303Z,99.90
2018-07-11T00:53:55.514Z,99.90
2018-07-11T00:56:27.558Z,99.90
2018-07-11T00:59:03.172Z,99.90
2018-07-11T01:01:32.369Z,99.90
2018-07-11T01:04:01.546Z,99.90
2018-07-11T01:06:30.751Z,99.90
2018-07-11T01:09:00.477Z,99.90
2018-07-11T01:11:32.940Z,99.90
2018-07-11T01:14:02.259Z,99.90
2018-07-11T01:16:32.542Z,99.90
2018-07-11T01:19:07.590Z,99.90
2018-07-11T01:21:37.415Z,99.90
2018-07-11T01:24:06.679Z,99.90
2018-07-11T01:26:37.961Z,99.90
2018-07-11T01:29:07.556Z,99.90
2018-07-11T01:31:36.737Z,99.90
2018-07-11T01:34:05.874Z,99.90
2018-07-11T01:36:35.020Z,99.90
2018-07-11T01:39:04.952Z,99.90
2018-07-11T01:41:34.204Z,99.90
2018-07-11T01:44:03.409Z,99.90
2018-07-11T01:46:43.814Z,99.90
2018-07-11T01:49:13.022Z,99.90
2018-07-11T01:51:53.904Z,99.90
2018-07-11T01:54:23.115Z,99.90
2018-07-11T01:56:52.987Z,99.90
2018-07-11T01:59:23.640Z,99.90
2018-07-11T02:01:52.920Z,99.90
2018-07-11T02:04:22.104Z,99.90
2018-07-11T02:06:51.375Z,99.90
2018-07-11T02:09:20.531Z,99.90
2018-07-11T02:11:49.809Z,99.90
2018-07-11T02:14:19.045Z,99.90
2018-07-11T02:16:48.249Z,99.90
2018-07-11T02:19:20.026Z,99.90
2018-07-11T02:21:50.314Z,99.90
2018-07-11T02:24:21.182Z,99.90
2018-07-11T02:26:50.466Z,99.90
2018-07-11T02:29:19.690Z,99.90
2018-07-11T02:31:48.854Z,99.90
2018-07-11T02:34:22.309Z,99.90
2018-07-11T02:36:51.485Z,99.90
2018-07-11T02:39:20.661Z,99.90
2018-07-11T02:41:49.905Z,99.90
2018-07-11T02:44:19.064Z,99.90
2018-07-11T02:46:53.555Z,99.90
2018-07-11T02:49:22.777Z,99.90
2018-07-11T02:51:52.077Z,99.90
2018-07-11T02:54:21.290Z,99.90
2018-07-11T02:56:50.448Z,99.90
2018-07-11T02:59:19.869Z,99.90
2018-07-11T03:01:49.072Z,99.90
2018-07-11T03:04:18.297Z,99.90
2018-07-11T03:06:47.423Z,99.90
2018-07-11T03:09:16.827Z,99.90
2018-07-11T03:11:45.989Z,99.90
2018-07-11T03:14:15.148Z,99.90
2018-07-11T03:16:44.271Z,99.90
2018-07-11T03:19:13.481Z,99.90
2018-07-11T03:21:42.662Z,99.90
2018-07-11T03:24:11.828Z,99.90
2018-07-11T03:26:41.078Z,99.90
2018-07-11T03:29:10.279Z,99.90
2018-07-11T03:31:39.640Z,99.90
2018-07-11T03:34:08.774Z,99.90
2018-07-11T03:36:37.973Z,99.90
2018-07-11T03:39:08.164Z,99.90
2018-07-11T03:41:37.406Z,99.90
2018-07-11T03:44:06.955Z,99.90
2018-07-11T03:46:36.228Z,99.90
2018-07-11T03:49:05.358Z,99.90
2018-07-11T03:51:34.632Z,99.90
2018-07-11T03:54:03.885Z,99.90
2018-07-11T03:56:33.115Z,99.90
2018-07-11T03:59:02.329Z,99.90
2018-07-11T04:01:31.536Z,99.90
2018-07-11T04:04:00.753Z,99.90
2018-07-11T04:06:29.984Z,99.90
2018-07-11T04:08:59.706Z,99.90
2018-07-11T04:11:28.995Z,99.90
2018-07-11T04:13:58.242Z,99.90
2018-07-11T04:18:56.096Z,99.90
2018-07-11T04:21:25.794Z,99.90
2018-07-11T04:23:55.013Z,99.90
2018-07-11T04:26:24.191Z,99.90
2018-07-11T04:28:53.424Z,99.90
2018-07-11T04:31:22.595Z,99.90
2018-07-11T04:33:51.841Z,99.90
2018-07-11T04:36:21.056Z,99.90
2018-07-11T04:38:50.304Z,99.90
2018-07-11T04:41:19.420Z,99.90
2018-07-11T04:43:48.661Z,99.90
2018-07-11T04:46:17.940Z,99.90
2018-07-11T04:51:15.805Z,99.90
2018-07-11T04:53:46.102Z,99.90
2018-07-11T04:56:15.309Z,99.90
2018-07-11T04:58:44.464Z,99.90
2018-07-11T05:01:13.628Z,99.90
2018-07-11T05:03:42.805Z,99.90
2018-07-11T05:06:11.936Z,99.90
2018-07-11T05:08:41.174Z,99.90
2018-07-11T05:11:10.803Z,99.90
2018-07-11T05:13:40.141Z,99.90
2018-07-11T05:16:09.426Z,99.90
2018-07-11T05:18:38.548Z,99.90
2018-07-11T05:21:07.714Z,99.90
2018-07-11T05:23:36.897Z,99.90
2018-07-11T05:26:06.068Z,99.90
2018-07-11T05:28:35.183Z,99.90
2018-07-11T05:31:04.309Z,99.90
2018-07-11T05:33:33.434Z,99.90
2018-07-11T05:36:02.614Z,99.90
2018-07-11T05:38:31.820Z,99.90
2018-07-11T05:41:01.185Z,99.90
2018-07-11T05:43:30.314Z,99.90
2018-07-11T05:45:59.461Z,99.90
2018-07-11T05:48:28.585Z,99.90
2018-07-11T05:50:57.716Z,99.90
2018-07-11T05:53:26.864Z,99.90
2018-07-11T05:55:55.985Z,99.90
2018-07-11T05:58:25.284Z,99.90
2018-07-11T06:00:54.418Z,99.90
2018-07-11T06:03:23.548Z,99.90
2018-07-11T06:05:52.714Z,99.90
2018-07-11T06:08:21.987Z,99.90
2018-07-11T06:10:51.120Z,99.90
2018-07-11T06:13:20.439Z,99.90
2018-07-11T06:15:50.636Z,99.90
2018-07-11T06:18:20.357Z,99.90
2018-07-11T06:20:49.528Z,99.90
2018-07-11T06:23:18.688Z,99.20
2018-07-11T06:25:47.849Z,99.70
2018-07-11T06:28:17.013Z,99.90
2018-07-11T06:30:46.169Z,99.80
2018-07-11T06:33:15.303Z,98.90
2018-07-11T06:35:44.383Z,99.90
2018-07-11T06:38:13.564Z,99.90
2018-07-11T06:40:42.737Z,99.90
2018-07-11T06:43:12.034Z,99.00
2018-07-11T06:45:41.272Z,99.60
2018-07-11T06:48:10.486Z,98.90
2018-07-11T06:50:39.704Z,99.00
2018-07-11T06:53:08.850Z,98.70
2018-07-11T06:55:38.091Z,99.50
2018-07-11T06:58:07.936Z,99.30
2018-07-11T07:00:37.157Z,99.20
2018-07-11T07:03:06.328Z,99.90
2018-07-11T07:05:35.488Z,99.90
2018-07-11T07:08:04.755Z,99.90
2018-07-11T07:10:33.977Z,99.90
2018-07-11T07:13:03.094Z,99.90
2018-07-11T07:15:32.296Z,99.90
2018-07-11T07:18:08.024Z,99.90
2018-07-11T07:20:37.201Z,99.90
2018-07-11T07:23:06.626Z,99.90
2018-07-11T07:25:35.785Z,99.90
2018-07-11T07:28:04.952Z,99.90
2018-07-11T07:30:34.085Z,99.90
2018-07-11T07:33:03.189Z,99.90
2018-07-11T07:35:32.413Z,99.90
2018-07-11T07:38:01.509Z,99.90
2018-07-11T07:40:30.680Z,99.90
2018-07-11T07:42:59.849Z,99.90
2018-07-11T07:45:29.154Z,99.90
2018-07-11T07:50:28.442Z,99.90
2018-07-11T07:52:58.284Z,99.90
2018-07-11T07:55:27.360Z,99.90
2018-07-11T07:57:56.547Z,99.90
2018-07-11T08:00:25.707Z,99.90
2018-07-11T08:02:54.886Z,99.90
2018-07-11T08:05:24.109Z,99.90
2018-07-11T08:07:53.354Z,99.90
2018-07-11T08:10:22.505Z,99.90
2018-07-11T08:12:51.644Z,99.90
2018-07-11T08:15:20.777Z,99.90
2018-07-11T08:17:49.941Z,99.30
2018-07-11T08:20:19.179Z,99.10
2018-07-11T08:23:25.550Z,99.30
2018-07-11T08:26:06.723Z,98.80
2018-07-11T08:31:03.525Z,98.40
2018-07-11T08:33:44.867Z,97.90
2018-07-11T08:36:26.794Z,97.10
2018-07-11T08:40:15.084Z,95.70
2018-07-11T08:42:53.769Z,95.60
2018-07-11T08:46:07.225Z,95.40
2018-07-11T08:48:47.735Z,95.50
2018-07-11T08:54:04.565Z,94.70
2018-07-11T08:58:50.360Z,95.50
2018-07-11T09:01:44.152Z,94.90
2018-07-11T09:04:51.997Z,94.50
2018-07-11T09:07:32.343Z,94.60
2018-07-11T09:10:47.896Z,95.00
2018-07-11T09:15:43.830Z,93.40
2018-07-11T09:18:18.047Z,92.50
2018-07-11T09:20:59.913Z,93.30
2018-07-11T09:23:41.166Z,93.10
2018-07-11T09:26:10.432Z,93.20
2018-07-11T09:28:40.277Z,92.90
2018-07-11T09:31:09.535Z,91.70
2018-07-11T09:33:38.905Z,92.10
2018-07-11T09:36:08.013Z,90.20
2018-07-11T09:38:37.259Z,89.60
2018-07-11T09:41:06.485Z,91.50
2018-07-11T09:43:35.664Z,90.00
2018-07-11T09:46:04.920Z,90.60
2018-07-11T09:48:34.081Z,91.50
2018-07-11T09:51:03.818Z,92.10
2018-07-11T09:53:32.992Z,92.70
2018-07-11T09:56:02.254Z,92.20
2018-07-11T09:58:31.865Z,90.70
2018-07-11T10:01:06.513Z,89.70
2018-07-11T10:03:35.772Z,86.70
2018-07-11T10:06:04.947Z,86.10
2018-07-11T10:08:34.124Z,87.20
2018-07-11T10:11:03.305Z,87.30
2018-07-11T10:13:32.500Z,90.30
2018-07-11T10:16:01.661Z,85.80
2018-07-11T10:18:30.832Z,88.10
2018-07-11T10:21:00.008Z,82.10
2018-07-11T10:23:29.234Z,82.10
2018-07-11T10:25:58.388Z,83.10
2018-07-11T10:28:27.608Z,83.70
2018-07-11T10:30:56.771Z,81.10
2018-07-11T10:33:25.964Z,80.50
2018-07-11T10:35:55.107Z,83.50
2018-07-11T10:38:24.900Z,84.00
2018-07-11T10:40:54.075Z,85.90
2018-07-11T10:45:51.914Z,86.70
2018-07-11T10:48:21.119Z,84.20
2018-07-11T10:50:50.265Z,85.60
2018-07-11T10:53:19.396Z,89.20
2018-07-11T10:55:48.714Z,89.30
2018-07-11T10:58:17.917Z,89.80
2018-07-11T11:01:05.021Z,90.30
2018-07-11T11:03:22.884Z,89.40
2018-07-11T11:05:52.518Z,90.30
2018-07-11T11:08:21.756Z,90.50
2018-07-11T11:10:51.471Z,91.00
2018-07-11T11:13:21.328Z,91.00
2018-07-11T11:15:51.251Z,92.00
2018-07-11T11:18:21.279Z,90.80
2018-07-11T11:20:51.827Z,91.70
2018-07-11T11:23:21.097Z,92.30
2018-07-11T11:25:50.333Z,91.80
2018-07-11T11:28:19.437Z,91.20
2018-07-11T11:30:48.645Z,90.50
2018-07-11T11:33:17.844Z,91.00
2018-07-11T11:35:47.054Z,89.00
2018-07-11T11:38:16.195Z,89.00
2018-07-11T11:40:45.323Z,90.40
2018-07-11T11:43:14.474Z,90.30
2018-07-11T11:45:43.767Z,88.10
2018-07-11T11:48:12.940Z,87.20
2018-07-11T11:50:42.189Z,91.30
2018-07-11T11:53:11.437Z,90.00
2018-07-11T11:55:40.632Z,88.10
2018-07-11T11:58:09.892Z,87.80
2018-07-11T12:00:39.905Z,90.40
2018-07-11T12:05:38.029Z,87.50
2018-07-11T12:08:07.179Z,89.10
2018-07-11T12:10:36.351Z,90.30
2018-07-11T12:13:05.613Z,88.20
2018-07-11T12:15:34.956Z,89.60
2018-07-11T12:18:04.108Z,86.40
2018-07-11T12:20:33.272Z,86.20
2018-07-11T12:23:02.481Z,86.10
2018-07-11T12:25:31.741Z,83.60
2018-07-11T12:28:00.899Z,84.30
2018-07-11T12:30:30.082Z,86.90
2018-07-11T12:32:59.372Z,87.70
2018-07-11T12:35:28.548Z,90.00
2018-07-11T12:37:57.884Z,91.30
2018-07-11T12:40:27.078Z,90.70
2018-07-11T12:42:56.280Z,91.30
2018-07-11T12:45:25.507Z,90.30
2018-07-11T12:47:59.928Z,90.50
2018-07-11T12:50:29.156Z,90.90
2018-07-11T12:52:58.427Z,91.30
2018-07-11T12:55:27.625Z,89.10
2018-07-11T12:57:56.820Z,88.90
2018-07-11T13:00:26.054Z,89.50
2018-07-11T13:02:55.922Z,89.00
2018-07-11T13:05:25.225Z,89.60
2018-07-11T13:07:54.408Z,89.30
2018-07-11T13:10:23.637Z,89.30
2018-07-11T13:12:52.803Z,89.40
2018-07-11T13:15:22.021Z,90.50
2018-07-11T13:17:51.192Z,90.40
2018-07-11T13:20:20.341Z,90.70
2018-07-11T13:22:49.543Z,90.80
2018-07-11T13:25:18.725Z,90.40
2018-07-11T13:27:47.915Z,90.40
2018-07-11T13:30:17.114Z,89.90
2018-07-11T13:32:46.396Z,90.90
2018-07-11T13:35:15.613Z,90.80
2018-07-11T13:37:44.856Z,90.50
2018-07-11T13:40:14.495Z,90.60
2018-07-11T13:42:43.684Z,90.80
2018-07-11T13:45:13.060Z,91.70
2018-07-11T13:47:42.288Z,90.60
2018-07-11T13:50:11.440Z,90.90
2018-07-11T13:52:40.670Z,90.20
2018-07-11T13:55:10.000Z,91.90
2018-07-11T13:57:39.205Z,92.20
2018-07-11T14:00:08.361Z,93.00
2018-07-11T14:02:37.552Z,92.60
2018-07-11T14:05:07.024Z,92.30
2018-07-11T14:07:36.306Z,92.70
2018-07-11T14:10:05.417Z,92.80
2018-07-11T14:12:34.555Z,93.10
2018-07-11T14:15:03.793Z,92.70
2018-07-11T14:17:32.990Z,92.80
2018-07-11T14:20:02.223Z,91.60
2018-07-11T14:22:31.434Z,92.00
2018-07-11T14:25:01.161Z,92.30
2018-07-11T14:27:30.377Z,92.30
2018-07-11T14:30:00.483Z,92.60
2018-07-11T14:32:29.684Z,92.50
2018-07-11T14:34:58.863Z,91.50
2018-07-11T14:37:28.226Z,92.70
2018-07-11T14:42:26.188Z,92.80
2018-07-11T14:44:55.661Z,92.40
2018-07-11T14:47:30.320Z,92.90
2018-07-11T14:49:59.527Z,92.30
2018-07-11T14:52:28.759Z,92.00
2018-07-11T14:54:57.951Z,91.30
2018-07-11T14:57:27.401Z,92.10
2018-07-11T14:59:56.624Z,91.70
2018-07-11T15:02:26.145Z,91.80
2018-07-11T15:04:55.402Z,91.80
2018-07-11T15:07:24.684Z,92.40
2018-07-11T15:09:53.856Z,92.60
2018-07-11T15:12:23.114Z,93.10
2018-07-11T15:14:52.817Z,92.20
2018-07-11T15:17:22.091Z,91.70
2018-07-11T15:19:51.359Z,92.20
2018-07-11T15:22:20.551Z,92.10
2018-07-11T15:24:49.734Z,91.70
2018-07-11T15:27:18.986Z,92.10
2018-07-11T15:29:48.328Z,92.10
2018-07-11T15:32:17.491Z,92.00
2018-07-11T15:34:46.784Z,91.60
2018-07-11T15:37:15.999Z,92.40
2018-07-11T15:39:45.171Z,92.00
2018-07-11T15:42:14.373Z,91.00
2018-07-11T15:44:43.576Z,91.20
2018-07-11T15:47:12.846Z,91.00
2018-07-11T15:49:42.090Z,90.90
2018-07-11T15:52:11.307Z,90.60
2018-07-11T15:54:40.684Z,90.90
2018-07-11T15:57:09.932Z,89.50
2018-07-11T15:59:45.308Z,88.00
2018-07-11T16:02:14.456Z,88.10
2018-07-11T16:04:43.663Z,89.60
2018-07-11T16:07:12.806Z,86.30
2018-07-11T16:09:50.180Z,87.00
2018-07-11T16:12:19.341Z,89.20
2018-07-11T16:14:48.544Z,87.50
2018-07-11T16:17:17.739Z,87.70
2018-07-11T16:19:46.964Z,84.20
2018-07-11T16:22:16.180Z,88.50
2018-07-11T16:24:45.513Z,86.10
2018-07-11T16:27:14.744Z,89.10
2018-07-11T16:29:43.976Z,87.40
2018-07-11T16:32:13.285Z,88.50
2018-07-11T16:34:42.980Z,88.00
2018-07-11T16:37:12.188Z,88.20
2018-07-11T16:39:41.454Z,89.40
2018-07-11T16:42:10.626Z,90.50
2018-07-11T16:44:40.812Z,90.80
2018-07-11T16:47:10.090Z,90.80
2018-07-11T16:49:41.005Z,91.50
2018-07-11T16:52:10.284Z,91.30
2018-07-11T16:54:39.579Z,91.80
2018-07-11T16:57:09.545Z,90.40
2018-07-11T16:59:48.713Z,91.20
2018-07-11T17:02:22.820Z,91.30
2018-07-11T17:04:53.787Z,91.40
2018-07-11T17:07:24.293Z,91.40
2018-07-11T17:09:55.788Z,91.50
2018-07-11T17:12:25.450Z,91.50
2018-07-11T17:14:58.229Z,92.00
2018-07-11T17:17:34.598Z,91.80
2018-07-11T17:20:05.756Z,92.00
2018-07-11T17:22:45.814Z,91.50
2018-07-11T17:25:15.013Z,92.10
2018-07-11T17:27:44.195Z,92.50
2018-07-11T17:30:13.419Z,92.60
2018-07-11T17:32:43.167Z,92.10
2018-07-11T17:35:12.404Z,91.10
2018-07-11T17:37:42.631Z,91.10
2018-07-11T17:40:12.973Z,91.00
2018-07-11T17:42:43.640Z,91.00
2018-07-11T17:45:16.078Z,91.60
2018-07-11T17:48:06.141Z,90.60
2018-07-11T17:50:36.742Z,90.80
2018-07-11T17:53:13.636Z,90.90
2018-07-11T17:56:16.381Z,91.30
2018-07-11T17:58:52.605Z,92.30
2018-07-11T18:01:48.849Z,93.20
2018-07-11T18:04:32.406Z,93.70
2018-07-11T18:07:10.554Z,94.10
2018-07-11T18:09:58.215Z,94.30
2018-07-11T18:12:41.202Z,94.10
2018-07-11T18:15:26.713Z,94.70
2018-07-11T18:18:14.382Z,95.10
2018-07-11T18:20:54.530Z,95.10
2018-07-11T18:23:31.768Z,94.50
2018-07-11T18:26:29.752Z,93.70
2018-07-11T18:30:17.225Z,93.00
2018-07-11T18:32:55.333Z,93.00
2018-07-11T18:35:38.358Z,93.40
2018-07-11T18:38:20.275Z,93.30
2018-07-11T18:41:00.945Z,93.60
2018-07-11T18:45:42.437Z,94.20
2018-07-11T18:49:22.271Z,94.80
2018-07-11T18:52:04.384Z,95.60
2018-07-11T18:56:47.680Z,95.80
2018-07-11T18:59:27.313Z,95.90
2018-07-11T19:02:09.143Z,96.00
2018-07-11T19:04:54.166Z,95.80
2018-07-11T19:10:04.597Z,95.80
2018-07-11T19:12:46.602Z,96.20
2018-07-11T19:18:11.020Z,96.50
2018-07-11T19:20:50.303Z,97.20
2018-07-11T19:23:27.778Z,97.80
2018-07-11T19:27:07.384Z,98.10
2018-07-11T19:29:51.566Z,98.30
2018-07-11T19:34:35.164Z,98.70
2018-07-11T19:37:14.434Z,98.70
2018-07-11T19:39:58.469Z,99.00
2018-07-11T19:42:39.381Z,99.10
2018-07-11T19:47:16.238Z,99.20
2018-07-11T19:50:32.040Z,99.40
2018-07-11T19:53:12.537Z,99.80
2018-07-11T19:55:59.513Z,99.90
2018-07-11T19:58:28.819Z,99.90
2018-07-11T20:00:58.304Z,99.90
2018-07-11T20:03:27.590Z,99.90
2018-07-11T20:05:56.887Z,99.90
2018-07-11T20:08:26.035Z,99.90
2018-07-11T20:10:55.222Z,99.90
2018-07-11T20:13:24.494Z,99.90
2018-07-11T20:15:53.646Z,99.90
2018-07-11T20:18:22.892Z,99.90
2018-07-11T20:20:52.082Z,99.90
2018-07-11T20:23:21.282Z,99.90
2018-07-11T20:25:50.877Z,99.90
2018-07-11T20:28:20.280Z,99.90
2018-07-11T20:30:49.582Z,99.90
2018-07-11T20:33:18.795Z,99.90
2018-07-11T20:35:48.087Z,99.90
2018-07-11T20:38:17.317Z,99.90
2018-07-11T20:40:46.571Z,99.90
2018-07-11T20:43:15.861Z,99.90
2018-07-11T20:45:45.114Z,99.90
2018-07-11T20:48:14.550Z,99.90
2018-07-11T20:50:43.904Z,99.90
2018-07-11T20:55:42.788Z,99.90
2018-07-11T20:58:23.376Z,99.90
2018-07-11T21:01:04.244Z,99.90
2018-07-11T21:06:31.126Z,99.90
2018-07-11T21:09:24.808Z,99.90
2018-07-11T21:15:08.675Z,99.90
2018-07-11T21:19:15.288Z,99.90
2018-07-11T21:21:44.419Z,99.90
2018-07-11T21:24:13.922Z,99.90
2018-07-11T21:26:43.080Z,99.90
2018-07-11T21:29:12.217Z,99.90
2018-07-11T21:31:41.433Z,99.90
2018-07-11T21:34:10.696Z,99.90
2018-07-11T21:36:39.909Z,99.90
2018-07-11T21:39:09.121Z,99.90
2018-07-11T21:41:38.268Z,99.90
2018-07-11T21:44:07.490Z,99.90
2018-07-11T21:46:36.626Z,99.90
2018-07-11T21:49:05.773Z,99.90
2018-07-11T21:51:34.895Z,99.90
2018-07-11T21:54:04.200Z,99.90
2018-07-11T21:56:33.367Z,99.90
2018-07-11T21:59:02.507Z,99.90
2018-07-11T22:01:31.667Z,99.90
2018-07-11T22:04:00.774Z,99.90
2018-07-11T22:06:29.924Z,99.90
2018-07-11T22:08:59.124Z,99.90
2018-07-11T22:11:28.418Z,99.90
2018-07-11T22:13:57.500Z,99.90
2018-07-11T22:16:26.649Z,99.90
2018-07-11T22:18:55.752Z,99.90
2018-07-11T22:21:23.712Z,99.90
2018-07-11T22:23:51.688Z,99.90
2018-07-11T22:26:19.650Z,99.90
2018-07-11T22:28:47.613Z,99.90
2018-07-11T22:31:15.588Z,99.90
2018-07-11T22:33:43.551Z,99.90
2018-07-11T22:36:11.513Z,99.90
2018-07-11T22:38:39.486Z,99.90
2018-07-11T22:41:07.468Z,99.90
2018-07-11T22:43:35.440Z,99.90
2018-07-11T22:46:03.532Z,99.90
2018-07-11T22:48:31.547Z,99.90
2018-07-11T22:50:59.501Z,99.90
2018-07-11T22:53:27.447Z,99.90
2018-07-11T22:55:55.512Z,99.90
2018-07-11T22:58:23.487Z,99.90
2018-07-11T23:00:51.493Z,99.90
2018-07-11T23:03:19.448Z,99.90
2018-07-11T23:05:47.433Z,99.90
2018-07-11T23:08:15.470Z,99.90
2018-07-11T23:10:43.384Z,99.90
2018-07-11T23:13:11.448Z,99.90
2018-07-11T23:15:39.504Z,99.90
2018-07-11T23:18:07.456Z,99.90
2018-07-11T23:20:35.705Z,99.90
2018-07-11T23:23:03.625Z,99.90
2018-07-11T23:25:31.595Z,99.90
2018-07-11T23:27:59.575Z,99.90
2018-07-11T23:30:27.528Z,99.90
2018-07-11T23:32:55.609Z,99.90
2018-07-11T23:35:24.598Z,99.90
2018-07-11T23:37:54.515Z,99.90
2018-07-11T23:40:23.014Z,99.90
2018-07-11T23:42:51.096Z,99.90
2018-07-11T23:45:19.087Z,99.90
2018-07-11T23:47:47.083Z,99.90
2018-07-11T23:50:15.075Z,99.90
2018-07-11T23:52:43.045Z,99.90
2018-07-11T23:55:11.018Z,99.90
2018-07-11T23:57:38.997Z,99.90
